sensor_id;sensor_type;location;lat;lon;timestamp;P1;durP1;ratioP1;P2;durP2;ratioP2
23988;SDS011;12202;52.136;5.592;2023-02-15T00:01:05;121.10;;;55.92;;
23988;SDS011;12202;52.136;5.592;2023-02-15T00:03:31;118.00;;;53.92;;
23988;SDS011;12202;52.136;5.592;2023-02-15T00:05:57;116.82;;;53.97;;
23988;SDS011;12202;52.136;5.592;2023-02-15T00:08:23;120.13;;;53.92;;
23988;SDS011;12202;52.136;5.592;2023-02-15T00:10:49;121.43;;;54.00;;
23988;SDS011;12202;52.136;5.592;2023-02-15T00:13:15;124.70;;;54.25;;
23988;SDS011;12202;52.136;5.592;2023-02-15T00:15:41;115.03;;;50.40;;
23988;SDS011;12202;52.136;5.592;2023-02-15T00:18:07;113.57;;;50.75;;
23988;SDS011;12202;52.136;5.592;2023-02-15T00:20:33;117.55;;;52.38;;
23988;SDS011;12202;52.136;5.592;2023-02-15T00:22:59;101.32;;;46.80;;
23988;SDS011;12202;52.136;5.592;2023-02-15T00:25:25;114.22;;;51.58;;
23988;SDS011;12202;52.136;5.592;2023-02-15T00:27:51;115.97;;;49.28;;
23988;SDS011;12202;52.136;5.592;2023-02-15T00:30:17;109.63;;;48.47;;
23988;SDS011;12202;52.136;5.592;2023-02-15T00:32:43;111.13;;;48.75;;
23988;SDS011;12202;52.136;5.592;2023-02-15T00:35:09;106.53;;;47.25;;
23988;SDS011;12202;52.136;5.592;2023-02-15T00:37:35;110.45;;;46.40;;
23988;SDS011;12202;52.136;5.592;2023-02-15T00:40:01;108.75;;;47.40;;
23988;SDS011;12202;52.136;5.592;2023-02-15T00:42:27;102.38;;;44.50;;
23988;SDS011;12202;52.136;5.592;2023-02-15T00:44:53;94.63;;;44.75;;
23988;SDS011;12202;52.136;5.592;2023-02-15T00:47:19;102.20;;;44.83;;
23988;SDS011;12202;52.136;5.592;2023-02-15T00:49:45;95.72;;;46.65;;
23988;SDS011;12202;52.136;5.592;2023-02-15T00:52:11;100.30;;;47.05;;
23988;SDS011;12202;52.136;5.592;2023-02-15T00:54:37;110.85;;;46.05;;
23988;SDS011;12202;52.136;5.592;2023-02-15T00:57:03;110.40;;;45.83;;
23988;SDS011;12202;52.136;5.592;2023-02-15T00:59:29;105.13;;;46.13;;
23988;SDS011;12202;52.136;5.592;2023-02-15T01:01:55;107.53;;;45.60;;
23988;SDS011;12202;52.136;5.592;2023-02-15T01:04:21;112.60;;;48.28;;
23988;SDS011;12202;52.136;5.592;2023-02-15T01:06:47;98.18;;;44.70;;
23988;SDS011;12202;52.136;5.592;2023-02-15T01:09:13;108.68;;;45.92;;
23988;SDS011;12202;52.136;5.592;2023-02-15T01:11:39;96.82;;;45.60;;
23988;SDS011;12202;52.136;5.592;2023-02-15T01:14:05;102.90;;;43.88;;
23988;SDS011;12202;52.136;5.592;2023-02-15T01:16:31;101.30;;;44.55;;
23988;SDS011;12202;52.136;5.592;2023-02-15T01:18:57;109.78;;;47.20;;
23988;SDS011;12202;52.136;5.592;2023-02-15T01:21:24;103.50;;;43.00;;
23988;SDS011;12202;52.136;5.592;2023-02-15T01:23:50;107.53;;;47.90;;
23988;SDS011;12202;52.136;5.592;2023-02-15T01:26:16;114.47;;;47.28;;
23988;SDS011;12202;52.136;5.592;2023-02-15T01:28:42;114.20;;;47.92;;
23988;SDS011;12202;52.136;5.592;2023-02-15T01:31:08;107.93;;;49.38;;
23988;SDS011;12202;52.136;5.592;2023-02-15T01:33:35;128.10;;;51.20;;
23988;SDS011;12202;52.136;5.592;2023-02-15T01:36:02;140.40;;;55.20;;
23988;SDS011;12202;52.136;5.592;2023-02-15T01:38:28;125.22;;;50.70;;
23988;SDS011;12202;52.136;5.592;2023-02-15T01:40:54;110.18;;;46.58;;
23988;SDS011;12202;52.136;5.592;2023-02-15T01:43:40;107.47;;;44.22;;
23988;SDS011;12202;52.136;5.592;2023-02-15T01:46:06;114.38;;;45.65;;
23988;SDS011;12202;52.136;5.592;2023-02-15T01:48:33;111.57;;;44.97;;
23988;SDS011;12202;52.136;5.592;2023-02-15T01:51:00;102.90;;;44.88;;
23988;SDS011;12202;52.136;5.592;2023-02-15T01:53:29;110.15;;;45.47;;
23988;SDS011;12202;52.136;5.592;2023-02-15T01:56:00;106.70;;;45.88;;
23988;SDS011;12202;52.136;5.592;2023-02-15T01:58:27;112.47;;;47.72;;
23988;SDS011;12202;52.136;5.592;2023-02-15T02:00:54;93.95;;;42.55;;
23988;SDS011;12202;52.136;5.592;2023-02-15T02:03:26;99.68;;;43.22;;
23988;SDS011;12202;52.136;5.592;2023-02-15T02:05:55;89.32;;;40.55;;
23988;SDS011;12202;52.136;5.592;2023-02-15T02:08:21;91.70;;;39.33;;
23988;SDS011;12202;52.136;5.592;2023-02-15T02:10:47;101.25;;;44.47;;
23988;SDS011;12202;52.136;5.592;2023-02-15T02:13:13;91.75;;;40.65;;
23988;SDS011;12202;52.136;5.592;2023-02-15T02:15:54;92.43;;;40.90;;
23988;SDS011;12202;52.136;5.592;2023-02-15T02:18:35;105.50;;;41.85;;
23988;SDS011;12202;52.136;5.592;2023-02-15T02:23:51;99.00;;;41.08;;
23988;SDS011;12202;52.136;5.592;2023-02-15T02:26:43;90.65;;;39.13;;
23988;SDS011;12202;52.136;5.592;2023-02-15T02:34:20;99.78;;;43.45;;
23988;SDS011;12202;52.136;5.592;2023-02-15T02:39:37;95.28;;;43.00;;
23988;SDS011;12202;52.136;5.592;2023-02-15T02:42:16;92.28;;;39.88;;
23988;SDS011;12202;52.136;5.592;2023-02-15T02:44:46;87.22;;;39.47;;
23988;SDS011;12202;52.136;5.592;2023-02-15T02:49:40;98.70;;;42.05;;
23988;SDS011;12202;52.136;5.592;2023-02-15T02:52:32;101.68;;;39.80;;
23988;SDS011;12202;52.136;5.592;2023-02-15T02:54:53;92.90;;;37.60;;
23988;SDS011;12202;52.136;5.592;2023-02-15T02:57:19;95.78;;;40.78;;
23988;SDS011;12202;52.136;5.592;2023-02-15T02:59:47;98.75;;;41.33;;
23988;SDS011;12202;52.136;5.592;2023-02-15T03:02:19;95.50;;;39.35;;
23988;SDS011;12202;52.136;5.592;2023-02-15T03:04:51;95.75;;;40.33;;
23988;SDS011;12202;52.136;5.592;2023-02-15T03:07:23;87.07;;;39.17;;
23988;SDS011;12202;52.136;5.592;2023-02-15T03:09:53;98.57;;;40.78;;
23988;SDS011;12202;52.136;5.592;2023-02-15T03:12:21;99.28;;;41.65;;
23988;SDS011;12202;52.136;5.592;2023-02-15T03:14:51;100.80;;;42.28;;
23988;SDS011;12202;52.136;5.592;2023-02-15T03:17:17;98.22;;;41.38;;
23988;SDS011;12202;52.136;5.592;2023-02-15T03:19:45;96.38;;;40.72;;
23988;SDS011;12202;52.136;5.592;2023-02-15T03:22:15;97.85;;;41.95;;
23988;SDS011;12202;52.136;5.592;2023-02-15T03:24:48;98.65;;;42.17;;
23988;SDS011;12202;52.136;5.592;2023-02-15T03:27:18;100.32;;;44.88;;
23988;SDS011;12202;52.136;5.592;2023-02-15T03:29:49;104.20;;;42.78;;
23988;SDS011;12202;52.136;5.592;2023-02-15T03:32:17;108.63;;;44.38;;
23988;SDS011;12202;52.136;5.592;2023-02-15T03:34:43;102.95;;;43.05;;
23988;SDS011;12202;52.136;5.592;2023-02-15T03:37:13;103.97;;;42.10;;
23988;SDS011;12202;52.136;5.592;2023-02-15T03:40:17;114.40;;;43.97;;
23988;SDS011;12202;52.136;5.592;2023-02-15T03:42:54;95.78;;;39.53;;
23988;SDS011;12202;52.136;5.592;2023-02-15T03:45:24;105.30;;;42.95;;
23988;SDS011;12202;52.136;5.592;2023-02-15T03:47:51;92.28;;;39.08;;
23988;SDS011;12202;52.136;5.592;2023-02-15T03:50:22;100.43;;;41.05;;
23988;SDS011;12202;52.136;5.592;2023-02-15T03:53:09;105.85;;;42.22;;
23988;SDS011;12202;52.136;5.592;2023-02-15T03:55:36;93.63;;;40.13;;
23988;SDS011;12202;52.136;5.592;2023-02-15T03:58:03;98.07;;;40.80;;
23988;SDS011;12202;52.136;5.592;2023-02-15T04:00:55;90.38;;;37.97;;
23988;SDS011;12202;52.136;5.592;2023-02-15T04:06:10;96.20;;;39.53;;
23988;SDS011;12202;52.136;5.592;2023-02-15T04:08:36;90.43;;;38.38;;
23988;SDS011;12202;52.136;5.592;2023-02-15T04:11:21;87.25;;;37.78;;
23988;SDS011;12202;52.136;5.592;2023-02-15T04:13:47;97.07;;;40.92;;
23988;SDS011;12202;52.136;5.592;2023-02-15T04:16:22;98.07;;;38.50;;
23988;SDS011;12202;52.136;5.592;2023-02-15T04:18:48;100.82;;;38.97;;
23988;SDS011;12202;52.136;5.592;2023-02-15T04:21:32;96.53;;;39.38;;
23988;SDS011;12202;52.136;5.592;2023-02-15T04:24:17;88.68;;;37.67;;
23988;SDS011;12202;52.136;5.592;2023-02-15T04:27:02;94.32;;;38.80;;
23988;SDS011;12202;52.136;5.592;2023-02-15T04:29:29;98.38;;;41.08;;
23988;SDS011;12202;52.136;5.592;2023-02-15T04:31:57;99.85;;;40.15;;
23988;SDS011;12202;52.136;5.592;2023-02-15T04:34:23;89.95;;;39.55;;
23988;SDS011;12202;52.136;5.592;2023-02-15T04:36:49;90.88;;;39.28;;
23988;SDS011;12202;52.136;5.592;2023-02-15T04:39:15;92.43;;;39.80;;
23988;SDS011;12202;52.136;5.592;2023-02-15T04:41:42;102.22;;;39.13;;
23988;SDS011;12202;52.136;5.592;2023-02-15T04:44:08;98.80;;;39.08;;
23988;SDS011;12202;52.136;5.592;2023-02-15T04:46:34;96.72;;;40.92;;
23988;SDS011;12202;52.136;5.592;2023-02-15T04:49:00;102.57;;;40.53;;
23988;SDS011;12202;52.136;5.592;2023-02-15T04:51:26;103.80;;;42.60;;
23988;SDS011;12202;52.136;5.592;2023-02-15T04:53:52;94.60;;;40.17;;
23988;SDS011;12202;52.136;5.592;2023-02-15T04:56:18;101.15;;;41.03;;
23988;SDS011;12202;52.136;5.592;2023-02-15T04:58:44;96.95;;;41.63;;
23988;SDS011;12202;52.136;5.592;2023-02-15T05:01:10;94.80;;;41.25;;
23988;SDS011;12202;52.136;5.592;2023-02-15T05:03:36;97.78;;;40.17;;
23988;SDS011;12202;52.136;5.592;2023-02-15T05:06:03;104.93;;;42.67;;
23988;SDS011;12202;52.136;5.592;2023-02-15T05:08:29;96.07;;;40.00;;
23988;SDS011;12202;52.136;5.592;2023-02-15T05:10:55;95.25;;;42.28;;
23988;SDS011;12202;52.136;5.592;2023-02-15T05:13:21;99.25;;;39.92;;
23988;SDS011;12202;52.136;5.592;2023-02-15T05:15:48;108.47;;;41.05;;
23988;SDS011;12202;52.136;5.592;2023-02-15T05:18:14;100.25;;;39.00;;
23988;SDS011;12202;52.136;5.592;2023-02-15T05:20:41;100.07;;;41.60;;
23988;SDS011;12202;52.136;5.592;2023-02-15T05:23:07;97.30;;;39.80;;
23988;SDS011;12202;52.136;5.592;2023-02-15T05:25:33;99.22;;;39.05;;
23988;SDS011;12202;52.136;5.592;2023-02-15T05:28:17;94.40;;;40.30;;
23988;SDS011;12202;52.136;5.592;2023-02-15T05:30:47;96.28;;;41.28;;
23988;SDS011;12202;52.136;5.592;2023-02-15T05:33:13;100.93;;;42.30;;
23988;SDS011;12202;52.136;5.592;2023-02-15T05:35:39;98.50;;;40.85;;
23988;SDS011;12202;52.136;5.592;2023-02-15T05:38:05;99.97;;;43.00;;
23988;SDS011;12202;52.136;5.592;2023-02-15T05:40:31;105.35;;;41.70;;
23988;SDS011;12202;52.136;5.592;2023-02-15T05:42:57;107.00;;;44.17;;
23988;SDS011;12202;52.136;5.592;2023-02-15T05:45:24;100.47;;;41.20;;
23988;SDS011;12202;52.136;5.592;2023-02-15T05:47:50;108.90;;;43.33;;
23988;SDS011;12202;52.136;5.592;2023-02-15T05:50:16;102.45;;;41.45;;
23988;SDS011;12202;52.136;5.592;2023-02-15T05:52:42;105.93;;;43.38;;
23988;SDS011;12202;52.136;5.592;2023-02-15T05:55:08;108.53;;;44.97;;
23988;SDS011;12202;52.136;5.592;2023-02-15T05:57:34;112.32;;;47.15;;
23988;SDS011;12202;52.136;5.592;2023-02-15T06:00:01;106.53;;;43.40;;
23988;SDS011;12202;52.136;5.592;2023-02-15T06:02:29;115.30;;;44.15;;
23988;SDS011;12202;52.136;5.592;2023-02-15T06:04:55;119.82;;;49.33;;
23988;SDS011;12202;52.136;5.592;2023-02-15T06:07:21;138.00;;;58.13;;
23988;SDS011;12202;52.136;5.592;2023-02-15T06:09:47;137.98;;;56.03;;
23988;SDS011;12202;52.136;5.592;2023-02-15T06:12:13;135.93;;;53.72;;
23988;SDS011;12202;52.136;5.592;2023-02-15T06:14:39;133.07;;;56.15;;
23988;SDS011;12202;52.136;5.592;2023-02-15T06:17:05;133.07;;;53.63;;
23988;SDS011;12202;52.136;5.592;2023-02-15T06:19:31;126.63;;;53.60;;
23988;SDS011;12202;52.136;5.592;2023-02-15T06:21:57;133.10;;;57.28;;
23988;SDS011;12202;52.136;5.592;2023-02-15T06:24:23;140.82;;;59.55;;
23988;SDS011;12202;52.136;5.592;2023-02-15T06:26:49;141.50;;;59.10;;
23988;SDS011;12202;52.136;5.592;2023-02-15T06:29:15;139.13;;;56.17;;
23988;SDS011;12202;52.136;5.592;2023-02-15T06:31:41;138.35;;;56.53;;
23988;SDS011;12202;52.136;5.592;2023-02-15T06:34:07;126.90;;;55.72;;
23988;SDS011;12202;52.136;5.592;2023-02-15T06:36:33;121.45;;;52.20;;
23988;SDS011;12202;52.136;5.592;2023-02-15T06:38:59;125.65;;;52.42;;
23988;SDS011;12202;52.136;5.592;2023-02-15T06:41:26;120.22;;;49.85;;
23988;SDS011;12202;52.136;5.592;2023-02-15T06:43:52;122.70;;;50.63;;
23988;SDS011;12202;52.136;5.592;2023-02-15T06:46:18;108.43;;;46.53;;
23988;SDS011;12202;52.136;5.592;2023-02-15T06:48:44;115.00;;;47.67;;
23988;SDS011;12202;52.136;5.592;2023-02-15T06:51:10;107.28;;;46.42;;
23988;SDS011;12202;52.136;5.592;2023-02-15T06:53:36;110.65;;;44.22;;
23988;SDS011;12202;52.136;5.592;2023-02-15T06:56:03;109.68;;;45.28;;
23988;SDS011;12202;52.136;5.592;2023-02-15T06:58:31;119.70;;;47.53;;
23988;SDS011;12202;52.136;5.592;2023-02-15T07:00:58;113.18;;;47.10;;
23988;SDS011;12202;52.136;5.592;2023-02-15T07:03:24;109.35;;;45.80;;
23988;SDS011;12202;52.136;5.592;2023-02-15T07:05:53;114.55;;;47.67;;
23988;SDS011;12202;52.136;5.592;2023-02-15T07:08:20;112.35;;;47.70;;
23988;SDS011;12202;52.136;5.592;2023-02-15T07:10:46;125.72;;;47.97;;
23988;SDS011;12202;52.136;5.592;2023-02-15T07:13:12;131.65;;;54.80;;
23988;SDS011;12202;52.136;5.592;2023-02-15T07:15:38;129.63;;;50.75;;
23988;SDS011;12202;52.136;5.592;2023-02-15T07:18:03;135.40;;;52.92;;
23988;SDS011;12202;52.136;5.592;2023-02-15T07:20:30;147.65;;;56.22;;
23988;SDS011;12202;52.136;5.592;2023-02-15T07:22:56;139.35;;;57.05;;
23988;SDS011;12202;52.136;5.592;2023-02-15T07:25:22;148.38;;;57.28;;
23988;SDS011;12202;52.136;5.592;2023-02-15T07:27:48;144.80;;;56.80;;
23988;SDS011;12202;52.136;5.592;2023-02-15T07:30:15;151.05;;;57.63;;
23988;SDS011;12202;52.136;5.592;2023-02-15T07:32:41;144.18;;;56.28;;
23988;SDS011;12202;52.136;5.592;2023-02-15T07:35:26;156.32;;;60.60;;
23988;SDS011;12202;52.136;5.592;2023-02-15T07:37:52;191.98;;;63.15;;
23988;SDS011;12202;52.136;5.592;2023-02-15T07:40:18;148.00;;;58.97;;
23988;SDS011;12202;52.136;5.592;2023-02-15T07:42:44;148.75;;;59.72;;
23988;SDS011;12202;52.136;5.592;2023-02-15T07:45:10;161.80;;;60.55;;
23988;SDS011;12202;52.136;5.592;2023-02-15T07:47:36;156.25;;;60.45;;
23988;SDS011;12202;52.136;5.592;2023-02-15T07:50:02;144.52;;;59.40;;
23988;SDS011;12202;52.136;5.592;2023-02-15T07:52:28;150.98;;;60.22;;
23988;SDS011;12202;52.136;5.592;2023-02-15T07:54:54;159.90;;;62.80;;
23988;SDS011;12202;52.136;5.592;2023-02-15T07:57:20;152.07;;;60.30;;
23988;SDS011;12202;52.136;5.592;2023-02-15T07:59:46;153.50;;;62.10;;
23988;SDS011;12202;52.136;5.592;2023-02-15T08:02:12;171.38;;;64.93;;
23988;SDS011;12202;52.136;5.592;2023-02-15T08:04:38;164.45;;;62.50;;
23988;SDS011;12202;52.136;5.592;2023-02-15T08:07:04;170.50;;;64.75;;
23988;SDS011;12202;52.136;5.592;2023-02-15T08:09:30;153.63;;;62.10;;
23988;SDS011;12202;52.136;5.592;2023-02-15T08:11:56;166.70;;;66.22;;
23988;SDS011;12202;52.136;5.592;2023-02-15T08:14:22;157.52;;;64.50;;
23988;SDS011;12202;52.136;5.592;2023-02-15T08:16:49;167.38;;;65.88;;
23988;SDS011;12202;52.136;5.592;2023-02-15T08:19:25;173.55;;;66.93;;
23988;SDS011;12202;52.136;5.592;2023-02-15T08:22:02;158.27;;;63.80;;
23988;SDS011;12202;52.136;5.592;2023-02-15T08:24:30;147.80;;;62.65;;
23988;SDS011;12202;52.136;5.592;2023-02-15T08:26:56;170.80;;;65.85;;
23988;SDS011;12202;52.136;5.592;2023-02-15T08:29:24;156.10;;;63.85;;
23988;SDS011;12202;52.136;5.592;2023-02-15T08:31:55;158.13;;;63.95;;
23988;SDS011;12202;52.136;5.592;2023-02-15T08:34:24;158.70;;;65.00;;
23988;SDS011;12202;52.136;5.592;2023-02-15T08:36:50;160.57;;;64.90;;
23988;SDS011;12202;52.136;5.592;2023-02-15T08:39:16;145.90;;;62.42;;
23988;SDS011;12202;52.136;5.592;2023-02-15T08:41:43;143.75;;;61.65;;
23988;SDS011;12202;52.136;5.592;2023-02-15T08:44:09;145.48;;;62.33;;
23988;SDS011;12202;52.136;5.592;2023-02-15T08:46:36;142.57;;;62.35;;
23988;SDS011;12202;52.136;5.592;2023-02-15T08:49:02;144.55;;;59.08;;
23988;SDS011;12202;52.136;5.592;2023-02-15T08:51:32;131.15;;;58.40;;
23988;SDS011;12202;52.136;5.592;2023-02-15T08:53:59;128.23;;;54.75;;
23988;SDS011;12202;52.136;5.592;2023-02-15T08:56:27;128.40;;;57.30;;
23988;SDS011;12202;52.136;5.592;2023-02-15T08:58:53;133.40;;;55.58;;
23988;SDS011;12202;52.136;5.592;2023-02-15T09:01:20;128.52;;;55.67;;
23988;SDS011;12202;52.136;5.592;2023-02-15T09:03:47;118.47;;;54.13;;
23988;SDS011;12202;52.136;5.592;2023-02-15T09:06:14;123.03;;;54.50;;
23988;SDS011;12202;52.136;5.592;2023-02-15T09:08:40;118.65;;;54.72;;
23988;SDS011;12202;52.136;5.592;2023-02-15T09:11:11;121.70;;;53.42;;
23988;SDS011;12202;52.136;5.592;2023-02-15T09:13:37;113.25;;;53.22;;
23988;SDS011;12202;52.136;5.592;2023-02-15T09:16:05;122.45;;;54.63;;
23988;SDS011;12202;52.136;5.592;2023-02-15T09:18:32;122.20;;;52.55;;
23988;SDS011;12202;52.136;5.592;2023-02-15T09:21:07;111.68;;;51.40;;
23988;SDS011;12202;52.136;5.592;2023-02-15T09:23:34;114.18;;;51.33;;
23988;SDS011;12202;52.136;5.592;2023-02-15T09:26:08;120.93;;;51.63;;
23988;SDS011;12202;52.136;5.592;2023-02-15T09:28:34;113.40;;;51.20;;
23988;SDS011;12202;52.136;5.592;2023-02-15T09:31:04;114.07;;;50.10;;
23988;SDS011;12202;52.136;5.592;2023-02-15T09:33:31;106.03;;;50.60;;
23988;SDS011;12202;52.136;5.592;2023-02-15T09:35:58;116.45;;;51.42;;
23988;SDS011;12202;52.136;5.592;2023-02-15T09:38:24;119.07;;;54.70;;
23988;SDS011;12202;52.136;5.592;2023-02-15T09:40:54;108.57;;;50.10;;
23988;SDS011;12202;52.136;5.592;2023-02-15T09:43:27;111.60;;;50.83;;
23988;SDS011;12202;52.136;5.592;2023-02-15T09:48:40;107.55;;;49.95;;
23988;SDS011;12202;52.136;5.592;2023-02-15T09:51:17;106.20;;;47.45;;
23988;SDS011;12202;52.136;5.592;2023-02-15T10:06:32;98.28;;;46.97;;
23988;SDS011;12202;52.136;5.592;2023-02-15T10:16:40;102.82;;;47.20;;
23988;SDS011;12202;52.136;5.592;2023-02-15T10:24:39;101.63;;;47.78;;
23988;SDS011;12202;52.136;5.592;2023-02-15T10:26:58;103.60;;;49.03;;
23988;SDS011;12202;52.136;5.592;2023-02-15T10:29:38;102.05;;;46.47;;
23988;SDS011;12202;52.136;5.592;2023-02-15T10:32:23;99.97;;;47.58;;
23988;SDS011;12202;52.136;5.592;2023-02-15T10:40:07;98.53;;;48.58;;
23988;SDS011;12202;52.136;5.592;2023-02-15T10:47:57;101.65;;;47.25;;
23988;SDS011;12202;52.136;5.592;2023-02-15T10:57:59;102.28;;;49.97;;
23988;SDS011;12202;52.136;5.592;2023-02-15T11:03:19;99.75;;;50.33;;
23988;SDS011;12202;52.136;5.592;2023-02-15T11:05:53;103.68;;;47.80;;
23988;SDS011;12202;52.136;5.592;2023-02-15T11:08:23;96.63;;;47.55;;
23988;SDS011;12202;52.136;5.592;2023-02-15T11:13:17;101.65;;;48.90;;
23988;SDS011;12202;52.136;5.592;2023-02-15T11:18:14;97.15;;;46.63;;
23988;SDS011;12202;52.136;5.592;2023-02-15T11:20:42;93.15;;;47.70;;
23988;SDS011;12202;52.136;5.592;2023-02-15T11:23:13;96.70;;;47.65;;
23988;SDS011;12202;52.136;5.592;2023-02-15T11:25:41;95.93;;;46.25;;
23988;SDS011;12202;52.136;5.592;2023-02-15T11:28:19;94.80;;;48.50;;
23988;SDS011;12202;52.136;5.592;2023-02-15T11:30:49;96.18;;;48.97;;
23988;SDS011;12202;52.136;5.592;2023-02-15T11:33:21;104.50;;;48.00;;
23988;SDS011;12202;52.136;5.592;2023-02-15T11:38:31;101.82;;;50.10;;
23988;SDS011;12202;52.136;5.592;2023-02-15T11:41:19;100.15;;;49.75;;
23988;SDS011;12202;52.136;5.592;2023-02-15T11:46:14;104.25;;;48.72;;
23988;SDS011;12202;52.136;5.592;2023-02-15T11:48:40;94.25;;;47.92;;
23988;SDS011;12202;52.136;5.592;2023-02-15T11:51:20;94.13;;;46.58;;
23988;SDS011;12202;52.136;5.592;2023-02-15T11:53:46;97.20;;;46.80;;
23988;SDS011;12202;52.136;5.592;2023-02-15T11:56:17;95.25;;;47.65;;
23988;SDS011;12202;52.136;5.592;2023-02-15T11:58:44;94.35;;;46.90;;
23988;SDS011;12202;52.136;5.592;2023-02-15T12:01:57;99.82;;;48.95;;
23988;SDS011;12202;52.136;5.592;2023-02-15T12:03:59;91.82;;;47.00;;
23988;SDS011;12202;52.136;5.592;2023-02-15T12:06:28;95.38;;;48.80;;
23988;SDS011;12202;52.136;5.592;2023-02-15T12:09:00;94.63;;;48.08;;
23988;SDS011;12202;52.136;5.592;2023-02-15T12:11:29;106.20;;;50.72;;
23988;SDS011;12202;52.136;5.592;2023-02-15T12:13:57;91.72;;;48.20;;
23988;SDS011;12202;52.136;5.592;2023-02-15T12:16:23;101.53;;;48.28;;
23988;SDS011;12202;52.136;5.592;2023-02-15T12:18:50;104.32;;;50.38;;
23988;SDS011;12202;52.136;5.592;2023-02-15T12:21:25;103.07;;;49.42;;
23988;SDS011;12202;52.136;5.592;2023-02-15T12:26:41;98.97;;;46.40;;
23988;SDS011;12202;52.136;5.592;2023-02-15T12:29:12;107.15;;;47.72;;
23988;SDS011;12202;52.136;5.592;2023-02-15T12:31:41;99.03;;;49.10;;
23988;SDS011;12202;52.136;5.592;2023-02-15T12:34:21;108.53;;;50.47;;
23988;SDS011;12202;52.136;5.592;2023-02-15T12:36:57;94.32;;;46.42;;
23988;SDS011;12202;52.136;5.592;2023-02-15T12:39:30;100.88;;;48.10;;
23988;SDS011;12202;52.136;5.592;2023-02-15T12:41:58;95.85;;;46.78;;
23988;SDS011;12202;52.136;5.592;2023-02-15T12:44:26;95.65;;;48.70;;
23988;SDS011;12202;52.136;5.592;2023-02-15T12:47:03;102.88;;;48.38;;
23988;SDS011;12202;52.136;5.592;2023-02-15T12:49:31;99.28;;;48.15;;
23988;SDS011;12202;52.136;5.592;2023-02-15T12:51:58;99.35;;;47.42;;
23988;SDS011;12202;52.136;5.592;2023-02-15T12:54:32;99.20;;;49.08;;
23988;SDS011;12202;52.136;5.592;2023-02-15T12:59:50;111.10;;;51.38;;
23988;SDS011;12202;52.136;5.592;2023-02-15T13:02:23;101.68;;;49.25;;
23988;SDS011;12202;52.136;5.592;2023-02-15T13:04:49;102.25;;;47.63;;
23988;SDS011;12202;52.136;5.592;2023-02-15T13:07:16;104.72;;;48.35;;
23988;SDS011;12202;52.136;5.592;2023-02-15T13:09:42;94.75;;;48.88;;
23988;SDS011;12202;52.136;5.592;2023-02-15T13:12:17;95.35;;;46.38;;
23988;SDS011;12202;52.136;5.592;2023-02-15T13:14:44;102.45;;;49.13;;
23988;SDS011;12202;52.136;5.592;2023-02-15T13:17:10;101.40;;;50.15;;
23988;SDS011;12202;52.136;5.592;2023-02-15T13:19:41;95.25;;;49.13;;
23988;SDS011;12202;52.136;5.592;2023-02-15T13:22:10;104.88;;;49.60;;
23988;SDS011;12202;52.136;5.592;2023-02-15T13:24:39;100.10;;;47.30;;
23988;SDS011;12202;52.136;5.592;2023-02-15T13:27:07;99.40;;;48.97;;
23988;SDS011;12202;52.136;5.592;2023-02-15T13:29:36;102.18;;;49.13;;
23988;SDS011;12202;52.136;5.592;2023-02-15T13:32:26;100.53;;;50.75;;
23988;SDS011;12202;52.136;5.592;2023-02-15T13:34:50;104.28;;;49.88;;
23988;SDS011;12202;52.136;5.592;2023-02-15T13:37:21;97.30;;;48.08;;
23988;SDS011;12202;52.136;5.592;2023-02-15T13:39:54;104.10;;;50.45;;
23988;SDS011;12202;52.136;5.592;2023-02-15T13:42:25;100.00;;;48.92;;
23988;SDS011;12202;52.136;5.592;2023-02-15T13:52:46;107.13;;;51.03;;
23988;SDS011;12202;52.136;5.592;2023-02-15T14:02:37;102.80;;;51.13;;
23988;SDS011;12202;52.136;5.592;2023-02-15T14:07:37;106.93;;;53.33;;
23988;SDS011;12202;52.136;5.592;2023-02-15T14:23:14;101.13;;;51.15;;
23988;SDS011;12202;52.136;5.592;2023-02-15T14:25:49;108.72;;;50.92;;
23988;SDS011;12202;52.136;5.592;2023-02-15T14:28:20;109.25;;;52.13;;
23988;SDS011;12202;52.136;5.592;2023-02-15T14:30:49;108.20;;;52.35;;
23988;SDS011;12202;52.136;5.592;2023-02-15T14:33:26;111.93;;;51.25;;
23988;SDS011;12202;52.136;5.592;2023-02-15T14:35:54;101.30;;;50.50;;
23988;SDS011;12202;52.136;5.592;2023-02-15T14:38:25;110.47;;;52.08;;
23988;SDS011;12202;52.136;5.592;2023-02-15T14:40:54;111.60;;;53.22;;
23988;SDS011;12202;52.136;5.592;2023-02-15T14:46:09;104.03;;;49.80;;
23988;SDS011;12202;52.136;5.592;2023-02-15T14:48:42;111.90;;;52.03;;
23988;SDS011;12202;52.136;5.592;2023-02-15T14:51:11;107.22;;;52.63;;
23988;SDS011;12202;52.136;5.592;2023-02-15T14:53:56;106.15;;;52.50;;
23988;SDS011;12202;52.136;5.592;2023-02-15T14:56:22;117.82;;;54.63;;
23988;SDS011;12202;52.136;5.592;2023-02-15T15:01:14;104.03;;;50.78;;
23988;SDS011;12202;52.136;5.592;2023-02-15T15:03:51;114.55;;;57.70;;
23988;SDS011;12202;52.136;5.592;2023-02-15T15:06:24;113.80;;;54.45;;
23988;SDS011;12202;52.136;5.592;2023-02-15T15:08:51;120.35;;;55.45;;
23988;SDS011;12202;52.136;5.592;2023-02-15T15:11:37;117.28;;;54.08;;
23988;SDS011;12202;52.136;5.592;2023-02-15T15:14:03;106.03;;;52.00;;
23988;SDS011;12202;52.136;5.592;2023-02-15T15:16:33;102.57;;;51.17;;
23988;SDS011;12202;52.136;5.592;2023-02-15T15:19:12;106.63;;;53.30;;
23988;SDS011;12202;52.136;5.592;2023-02-15T15:21:51;105.25;;;52.30;;
23988;SDS011;12202;52.136;5.592;2023-02-15T15:24:51;107.72;;;51.60;;
23988;SDS011;12202;52.136;5.592;2023-02-15T15:29:55;109.65;;;53.58;;
23988;SDS011;12202;52.136;5.592;2023-02-15T15:32:22;119.82;;;56.70;;
23988;SDS011;12202;52.136;5.592;2023-02-15T15:35:02;118.65;;;56.33;;
23988;SDS011;12202;52.136;5.592;2023-02-15T15:40:21;111.28;;;54.35;;
23988;SDS011;12202;52.136;5.592;2023-02-15T15:43:10;119.50;;;57.22;;
23988;SDS011;12202;52.136;5.592;2023-02-15T15:45:50;117.80;;;56.40;;
23988;SDS011;12202;52.136;5.592;2023-02-15T15:48:26;116.47;;;54.85;;
23988;SDS011;12202;52.136;5.592;2023-02-15T15:50:53;125.40;;;61.78;;
23988;SDS011;12202;52.136;5.592;2023-02-15T15:53:23;121.85;;;57.85;;
23988;SDS011;12202;52.136;5.592;2023-02-15T15:55:50;120.65;;;56.70;;
23988;SDS011;12202;52.136;5.592;2023-02-15T15:58:19;117.30;;;59.40;;
23988;SDS011;12202;52.136;5.592;2023-02-15T16:00:49;109.55;;;55.10;;
23988;SDS011;12202;52.136;5.592;2023-02-15T16:03:20;117.00;;;57.15;;
23988;SDS011;12202;52.136;5.592;2023-02-15T16:05:46;116.50;;;56.78;;
23988;SDS011;12202;52.136;5.592;2023-02-15T16:08:30;114.00;;;54.85;;
23988;SDS011;12202;52.136;5.592;2023-02-15T16:10:56;128.68;;;61.33;;
23988;SDS011;12202;52.136;5.592;2023-02-15T16:13:22;136.70;;;59.30;;
23988;SDS011;12202;52.136;5.592;2023-02-15T16:15:51;119.20;;;57.28;;
23988;SDS011;12202;52.136;5.592;2023-02-15T16:18:18;113.03;;;55.20;;
23988;SDS011;12202;52.136;5.592;2023-02-15T16:20:52;119.38;;;55.47;;
23988;SDS011;12202;52.136;5.592;2023-02-15T16:23:36;124.25;;;59.17;;
23988;SDS011;12202;52.136;5.592;2023-02-15T16:26:15;147.90;;;73.50;;
23988;SDS011;12202;52.136;5.592;2023-02-15T16:28:47;195.90;;;105.25;;